Language selection

My Weather Profile Weather Topics  | 

Western Lake Superior: Past 24 Hour Conditions

 

Mid Superior - 45001

10:00 AM EDT 22 September 2021Buoy position: 48.07N 87.78W
Disclaimer

This table is a summary of hourly weather conditions for the past 24 hours.
Please note that these observations might not always be representative of weather conditions over their associated marine area.

Date / Time
(EDT)
Wind(knots) Wave height(m) Wave period(s) Pressure(kPa) Air tempC) Water tempC)
22 September 2021
10:00 N 2 gust 4 N/A N/A 102.7 12 13
9:00 N 2 gust 4 N/A N/A 102.7 12 13
8:00 N 2 gust 4 N/A N/A 102.6 11 13
7:00 NNE 2 gust 4 N/A N/A 102.6 11 13
6:00 NNE 2 gust 4 N/A N/A 102.6 11 13
5:00 NE 4 gust 4 N/A N/A 102.6 12 13
4:00 NE 2 gust 4 N/A N/A 102.6 12 13
3:00 NE 4 gust 6 N/A N/A 102.5 12 13
2:00 NE 6 gust 8 N/A N/A 102.6 12 13
1:00 NE 6 gust 6 N/A N/A 102.6 12 13
0:00 ENE 6 gust 8 N/A N/A 102.6 12 13
21 September 2021
23:00 NE 8 gust 10 N/A N/A 102.5 12 13
22:00 NNE 12 gust 13 N/A N/A 102.5 12 13
21:00 NNE 13 gust 16 N/A N/A 102.4 12 13
20:00 NNE 12 gust 16 N/A N/A 102.3 12 13
19:00 N 13 gust 16 N/A N/A 102.2 12 13
18:00 N 12 gust 16 N/A N/A 102.1 12 13
17:00 N 16 gust 19 N/A N/A 102.0 13 13
16:00 NNW 17 gust 22 N/A N/A 102.0 12 13
15:00 NNW 16 gust 19 N/A N/A 101.9 12 13
14:00 NNW 17 gust 22 N/A N/A 101.8 12 13
13:00 NNW 19 gust 23 N/A N/A 101.7 12 13
12:00 NNW 19 gust 25 N/A N/A 101.6 12 13
11:00 NNW 23 gust 29 N/A N/A 101.4 12 14
10:00 NNW 22 gust 27 N/A N/A 101.2 13 14

Zoom-in to make a selection

Map of Great Lakes - Lake Superior marine weather areas Mid Superior - 45001 East Superior - 45004 West Superior - 45006 Slate Island - 45136 Lake Of the Woods - 45148 Kenora Airport Royal Island Armstrong Airport Caribou Island Marathon Airport Pukaskwa National Park Thunder Bay Airport Welcome Island Little Flatland Island Sault Ste. Marie Airport Wawa Airport
Legend:
buoy Buoy
land station Land Station

Great Lakes - Lake Superior Area

Another Region

What we are doing

Date modified: